Time;durP1;ratioP1;P1;durP2;ratioP2;P2;SDS_P1;SDS_P2;PMS_P1;PMS_P2;Temp;Humidity;BMP_temperature;BMP_pressure;BME280_temperature;BME280_humidity;BME280_pressure;Samples;Min_cycle;Max_cycle;Signal;HPM_P1;HPM_P2
2021/07/16 00:01:48;;;;;;;4.70;4.23;;;;;;;15.67;100.00;155387.41;5060854;28;20450;-76
2021/07/16 00:04:23;;;;;;;4.90;4.47;;;;;;;15.60;100.00;155367.91;5074633;28;20469;-75
2021/07/16 00:06:59;;;;;;;5.57;3.90;;;;;;;15.56;100.00;155358.84;5080758;28;20464;-76
2021/07/16 00:09:34;;;;;;;5.00;4.50;;;;;;;15.56;100.00;155358.84;5069784;28;20442;-76
2021/07/16 00:12:10;;;;;;;4.87;4.30;;;;;;;15.55;100.00;155356.25;5069807;28;20454;-75
2021/07/16 00:14:45;;;;;;;5.37;4.57;;;;;;;15.47;100.00;155335.44;5089370;28;20822;-76
2021/07/16 00:17:22;;;;;;;5.33;4.80;;;;;;;15.45;100.00;155330.19;5075983;28;20437;-75
2021/07/16 00:19:57;;;;;;;4.87;4.47;;;;;;;15.42;100.00;155322.41;5080268;28;20448;-76
2021/07/16 00:22:33;;;;;;;5.60;4.90;;;;;;;15.39;100.00;155314.59;5077012;28;20512;-76
2021/07/16 00:25:10;;;;;;;5.77;5.27;;;;;;;15.43;100.00;155325.00;5092786;28;20830;-75
2021/07/16 00:27:45;;;;;;;5.67;5.07;;;;;;;15.52;100.00;155348.44;5076454;28;20994;-76
2021/07/16 00:30:21;;;;;;;4.87;4.37;;;;;;;15.52;100.00;155348.44;5078422;28;20928;-76
2021/07/16 00:32:58;;;;;;;5.70;4.73;;;;;;;15.45;100.00;155330.19;5078067;28;20444;-76
2021/07/16 00:35:34;;;;;;;7.47;6.10;;;;;;;15.46;100.00;155332.81;5067597;28;20468;-76
2021/07/16 00:38:09;;;;;;;7.10;5.83;;;;;;;15.58;100.00;155362.75;5071846;28;20968;-75
2021/07/16 00:40:46;;;;;;;6.03;5.40;;;;;;;15.68;100.00;155390.03;5071792;28;20496;-76
2021/07/16 00:43:22;;;;;;;7.73;6.50;;;;;;;15.73;100.00;155403.03;5085071;28;20977;-76
2021/07/16 00:45:57;;;;;;;6.73;6.07;;;;;;;15.67;100.00;155387.41;5067687;28;20472;-76
2021/07/16 00:48:34;;;;;;;8.00;7.20;;;;;;;15.66;100.00;155384.84;5080125;28;20452;-76
2021/07/16 00:51:10;;;;;;;8.93;7.33;;;;;;;15.81;100.00;155423.81;5058709;28;20444;-76
2021/07/16 00:53:46;;;;;;;10.50;8.80;;;;;;;15.88;100.00;155439.44;5092239;28;20800;-76
2021/07/16 00:56:21;;;;;;;9.77;7.97;;;;;;;15.89;100.00;155442.00;5077284;28;20430;-76
2021/07/16 00:58:57;;;;;;;8.67;7.83;;;;;;;15.92;100.00;155449.81;5074809;28;20444;-76
2021/07/16 01:01:33;;;;;;;9.20;8.20;;;;;;;15.86;100.00;155434.25;5072996;28;20449;-76
2021/07/16 01:04:10;;;;;;;9.97;8.47;;;;;;;15.85;100.00;155432.94;5073923;28;20926;-76
2021/07/16 01:06:46;;;;;;;10.83;9.03;;;;;;;15.87;100.00;155436.81;5091734;28;20445;-76
2021/07/16 01:09:21;;;;;;;10.67;9.20;;;;;;;15.78;100.00;155414.72;5060469;28;20453;-76
2021/07/16 01:11:57;;;;;;;9.27;7.93;;;;;;;15.69;100.00;155391.34;5069759;28;20452;-76
2021/07/16 01:14:33;;;;;;;10.10;8.90;;;;;;;15.70;100.00;155395.22;5072320;28;20851;-76
2021/07/16 01:17:08;;;;;;;9.50;8.57;;;;;;;15.69;100.00;155391.34;5089197;28;20874;-76
2021/07/16 01:19:53;;;;;;;10.50;9.10;;;;;;;15.71;100.00;155397.84;5061415;28;20473;-76
2021/07/16 01:22:30;;;;;;;10.07;8.60;;;;;;;15.66;100.00;155384.84;5090004;28;20437;-76
2021/07/16 01:25:09;;;;;;;10.20;8.50;;;;;;;15.67;100.00;155387.41;5073695;28;20983;-76
2021/07/16 01:27:46;;;;;;;11.00;9.20;;;;;;;15.64;100.00;155379.66;5061476;28;20446;-76
2021/07/16 01:30:23;;;;;;;9.13;8.07;;;;;;;15.62;100.00;155374.41;5057305;28;20915;-76
2021/07/16 01:33:00;;;;;;;9.40;8.50;;;;;;;15.67;100.00;155386.16;5077801;28;20958;-75
2021/07/16 01:35:36;;;;;;;9.10;8.20;;;;;;;15.69;100.00;155392.66;5074578;28;20563;-76
2021/07/16 01:38:12;;;;;;;8.77;7.87;;;;;;;15.63;100.00;155377.03;5070368;28;20472;-76
2021/07/16 01:40:49;;;;;;;9.53;8.47;;;;;;;15.66;100.00;155384.84;5054045;28;20442;-76
2021/07/16 01:43:25;;;;;;;8.17;7.40;;;;;;;15.63;100.00;155375.72;5073773;28;20469;-76
2021/07/16 01:46:00;;;;;;;9.33;8.40;;;;;;;15.64;100.00;155378.34;5073658;28;20465;-76
2021/07/16 01:48:36;;;;;;;9.30;8.40;;;;;;;15.68;100.00;155388.72;5072781;28;20865;-76
2021/07/16 01:51:11;;;;;;;10.83;9.20;;;;;;;15.70;100.00;155395.22;5061245;28;20449;-76
2021/07/16 01:53:47;;;;;;;9.37;8.47;;;;;;;15.70;100.00;155395.22;5055014;28;20521;-76
2021/07/16 01:56:24;;;;;;;8.73;7.90;;;;;;;15.71;100.00;155397.84;5080184;28;20425;-76
2021/07/16 01:59:00;;;;;;;9.40;8.50;;;;;;;15.67;100.00;155387.41;5091954;28;20453;-76
2021/07/16 02:01:35;;;;;;;9.33;8.33;;;;;;;15.63;100.00;155377.03;5088496;28;20440;-76
2021/07/16 02:04:11;;;;;;;9.10;8.20;;;;;;;15.63;100.00;155377.03;5077042;28;20481;-76
2021/07/16 02:06:47;;;;;;;8.90;8.00;;;;;;;15.63;100.00;155377.03;5075694;28;20470;-76
2021/07/16 02:09:22;;;;;;;9.67;8.70;;;;;;;15.62;100.00;155373.16;5075485;28;20935;-76
2021/07/16 02:11:59;;;;;;;11.20;8.27;;;;;;;15.64;100.00;155378.34;5092746;28;20816;-76
2021/07/16 02:14:34;;;;;;;10.10;8.33;;;;;;;15.66;100.00;155383.53;5090561;28;20535;-76
2021/07/16 02:17:10;;;;;;;9.77;7.87;;;;;;;15.64;100.00;155378.34;5057413;28;20457;-76
2021/07/16 02:19:46;;;;;;;8.67;7.87;;;;;;;15.66;100.00;155383.53;5076834;28;20803;-76
2021/07/16 02:22:22;;;;;;;8.90;7.90;;;;;;;15.64;100.00;155379.66;5087051;28;20441;-75
2021/07/16 02:24:57;;;;;;;10.13;8.30;;;;;;;15.64;100.00;155379.66;5091543;28;20477;-76
2021/07/16 02:27:34;;;;;;;10.00;8.50;;;;;;;15.60;100.00;155369.22;5064585;28;21015;-76
2021/07/16 02:30:12;;;;;;;9.77;8.00;;;;;;;15.60;100.00;155369.22;5070837;28;20461;-76
2021/07/16 02:32:48;;;;;;;8.10;7.33;;;;;;;15.58;100.00;155364.03;5095540;28;20437;-75
2021/07/16 02:35:24;;;;;;;10.47;8.00;;;;;;;15.59;100.00;155366.66;5074977;28;20504;-76
2021/07/16 02:37:59;;;;;;;8.10;7.30;;;;;;;15.58;100.00;155364.03;5094561;28;20437;-76
2021/07/16 02:40:36;;;;;;;8.23;7.43;;;;;;;15.54;100.00;155353.63;5068729;28;20449;-76
2021/07/16 02:43:14;;;;;;;8.00;7.20;;;;;;;15.55;100.00;155354.94;5095238;28;20449;-76
2021/07/16 02:45:51;;;;;;;9.13;8.20;;;;;;;15.51;100.00;155345.88;5090498;28;20469;-76
2021/07/16 02:48:27;;;;;;;9.07;7.73;;;;;;;15.50;100.00;155341.94;5075776;28;20454;-75
2021/07/16 02:51:03;;;;;;;7.70;6.53;;;;;;;15.49;100.00;155340.63;5076587;28;20441;-76
2021/07/16 02:53:38;;;;;;;8.20;6.60;;;;;;;15.51;100.00;155345.88;5089176;28;20525;-76
2021/07/16 02:56:14;;;;;;;7.23;6.50;;;;;;;15.51;100.00;155345.88;5094144;28;20445;-76
2021/07/16 02:58:50;;;;;;;7.43;6.73;;;;;;;15.51;100.00;155345.88;5068134;28;20880;-76
2021/07/16 03:01:26;;;;;;;6.90;6.20;;;;;;;15.53;100.00;155351.06;5093096;28;20437;-76
2021/07/16 03:04:01;;;;;;;6.60;6.00;;;;;;;15.53;100.00;155349.75;5093672;28;20455;-76
2021/07/16 03:06:36;;;;;;;5.90;5.30;;;;;;;15.54;100.00;155352.38;5077497;28;20461;-75
2021/07/16 03:09:12;;;;;;;6.83;5.87;;;;;;;15.52;100.00;155348.44;5071589;28;20448;-76
2021/07/16 03:11:47;;;;;;;7.07;6.30;;;;;;;15.53;100.00;155351.06;5065664;28;20939;-76
2021/07/16 03:14:24;;;;;;;6.53;5.73;;;;;;;15.55;100.00;155354.94;5083035;28;20499;-76
2021/07/16 03:17:00;;;;;;;6.30;5.70;;;;;;;15.53;100.00;155351.06;5071918;28;20441;-76
2021/07/16 03:19:36;;;;;;;6.70;6.10;;;;;;;15.53;100.00;155349.75;5081947;28;20475;-76
2021/07/16 03:22:12;;;;;;;5.30;4.80;;;;;;;15.52;100.00;155348.44;5071686;28;20446;-76
2021/07/16 03:24:48;;;;;;;6.03;5.47;;;;;;;15.48;100.00;155338.06;5076670;28;20453;-76
2021/07/16 03:27:23;;;;;;;6.73;5.77;;;;;;;15.48;100.00;155338.06;5075260;28;20441;-76
2021/07/16 03:30:00;;;;;;;5.80;5.30;;;;;;;15.51;100.00;155345.88;5090617;28;20456;-76
2021/07/16 03:32:37;;;;;;;5.87;5.30;;;;;;;15.60;100.00;155369.22;5073050;28;20445;-76
2021/07/16 03:35:12;;;;;;;6.90;5.90;;;;;;;15.50;100.00;155343.25;5094491;28;20456;-76
2021/07/16 03:37:48;;;;;;;7.00;6.30;;;;;;;15.55;100.00;155356.25;5075090;28;20807;-75
2021/07/16 03:40:27;;;;;;;7.40;6.70;;;;;;;15.46;100.00;155332.81;5074124;28;20456;-76
2021/07/16 03:43:03;;;;;;;8.57;7.30;;;;;;;15.43;100.00;155325.00;5077329;28;20444;-75
2021/07/16 03:45:40;;;;;;;7.80;7.07;;;;;;;15.42;100.00;155322.41;5050994;28;20473;-76
2021/07/16 03:48:15;;;;;;;7.80;7.00;;;;;;;15.39;100.00;155314.59;5056965;28;20438;-76
2021/07/16 03:50:51;;;;;;;7.53;6.83;;;;;;;15.34;100.00;155301.59;5085469;28;20907;-75
2021/07/16 03:53:26;;;;;;;7.33;6.63;;;;;;;15.39;100.00;155314.59;5074736;28;20476;-76
2021/07/16 03:56:06;;;;;;;8.77;7.20;;;;;;;15.42;100.00;155322.41;5074431;28;20449;-76
2021/07/16 03:58:42;;;;;;;6.60;6.00;;;;;;;15.44;100.00;155327.59;5081824;28;20828;-76
2021/07/16 04:01:19;;;;;;;7.87;7.07;;;;;;;15.45;100.00;155330.19;5077381;28;20788;-76
2021/07/16 04:03:54;;;;;;;8.03;7.30;;;;;;;15.46;100.00;155332.81;5080009;28;20446;-75
2021/07/16 04:06:31;;;;;;;7.80;7.00;;;;;;;15.46;100.00;155332.81;5075825;28;20457;-75
2021/07/16 04:09:26;;;;;;;8.30;7.50;;;;;;;15.47;100.00;155334.13;5076051;28;20429;-76
2021/07/16 04:12:06;;;;;;;6.67;5.50;;;;;;;15.50;100.00;155343.25;5091390;28;20438;-76
2021/07/16 04:14:43;;;;;;;7.60;6.80;;;;;;;15.54;100.00;155353.63;5093373;28;20975;-76
2021/07/16 04:17:22;;;;;;;7.40;6.67;;;;;;;15.58;100.00;155364.03;5074228;28;20445;-76
2021/07/16 04:19:57;;;;;;;8.90;8.00;;;;;;;15.52;100.00;155348.44;5083869;28;20506;-76
2021/07/16 04:22:33;;;;;;;8.60;7.53;;;;;;;15.52;100.00;155348.44;5066039;28;20440;-76
2021/07/16 04:25:13;;;;;;;9.90;8.07;;;;;;;15.50;100.00;155343.25;5055660;28;20540;-75
2021/07/16 04:27:51;;;;;;;9.23;8.23;;;;;;;15.61;100.00;155370.53;5056058;28;20443;-76
2021/07/16 04:30:26;;;;;;;10.50;8.07;;;;;;;15.59;100.00;155365.34;5073899;28;20464;-76
2021/07/16 04:33:05;;;;;;;8.67;6.90;;;;;;;15.64;100.00;155379.66;5072727;28;20471;-76
2021/07/16 04:35:41;;;;;;;6.67;6.07;;;;;;;15.60;100.00;155367.91;5086684;28;20468;-76
2021/07/16 04:38:17;;;;;;;7.20;6.40;;;;;;;15.59;100.00;155366.66;5074655;28;20449;-76
2021/07/16 04:40:53;;;;;;;7.83;7.10;;;;;;;15.58;100.00;155364.03;5092545;28;20943;-76
2021/07/16 04:43:28;;;;;;;7.43;6.30;;;;;;;15.61;100.00;155371.84;5091450;28;20448;-76
2021/07/16 04:46:04;;;;;;;8.83;7.57;;;;;;;15.64;100.00;155379.66;5083908;28;20472;-76
2021/07/16 04:48:41;;;;;;;7.83;7.10;;;;;;;15.70;100.00;155395.22;5093065;28;20413;-76
2021/07/16 04:51:24;;;;;;;7.03;5.80;;;;;;;15.65;100.00;155382.22;5085156;28;20444;-76
2021/07/16 04:54:01;;;;;;;6.50;5.83;;;;;;;15.63;100.00;155377.03;5071402;28;20450;-76
2021/07/16 04:56:36;;;;;;;6.70;6.00;;;;;;;15.61;100.00;155370.53;5089831;28;20456;-75
2021/07/16 04:59:12;;;;;;;9.17;7.30;;;;;;;15.60;100.00;155369.22;5086471;28;20933;-75
2021/07/16 05:01:48;;;;;;;7.67;6.90;;;;;;;15.64;100.00;155379.66;5070321;28;20445;-75
2021/07/16 05:04:25;;;;;;;8.73;7.73;;;;;;;15.63;100.00;155377.03;5058871;28;20449;-81
2021/07/16 05:07:08;;;;;;;10.07;8.00;;;;;;;15.60;100.00;155369.22;5073278;28;20479;-75
2021/07/16 05:09:43;;;;;;;12.03;9.20;;;;;;;15.66;100.00;155384.84;5065791;28;20713;-76
2021/07/16 05:12:19;;;;;;;12.20;9.73;;;;;;;15.72;100.00;155399.16;5074942;28;20915;-75
2021/07/16 05:14:54;;;;;;;11.47;9.80;;;;;;;15.72;100.00;155400.47;5075003;28;20437;-76
2021/07/16 05:17:30;;;;;;;11.63;10.07;;;;;;;15.77;100.00;155412.13;5092440;28;20852;-76
2021/07/16 05:20:08;;;;;;;10.80;9.60;;;;;;;15.73;100.00;155403.03;5073305;28;20459;-76
2021/07/16 05:22:44;;;;;;;11.10;9.90;;;;;;;15.75;100.00;155406.97;5076844;28;20464;-76
2021/07/16 05:25:22;;;;;;;9.93;9.03;;;;;;;15.76;100.00;155410.84;5071291;28;20544;-76
2021/07/16 05:27:58;;;;;;;12.23;9.87;;;;;;;15.77;100.00;155412.13;5054412;28;20820;-76
2021/07/16 05:30:34;;;;;;;17.30;11.73;;;;;;;15.80;100.00;155419.94;5087756;28;20456;-76
2021/07/16 05:33:09;;;;;;;17.07;11.50;;;;;;;15.79;100.00;155417.34;5076654;28;20480;-75
2021/07/16 05:35:46;;;;;;;12.77;10.77;;;;;;;15.81;100.00;155422.53;5093299;28;20432;-75
2021/07/16 05:38:22;;;;;;;15.53;10.90;;;;;;;15.85;100.00;155432.94;5073569;28;20444;-76
2021/07/16 05:40:58;;;;;;;16.83;11.43;;;;;;;15.86;100.00;155434.25;5064212;28;20450;-76
2021/07/16 05:43:34;;;;;;;14.40;12.40;;;;;;;15.90;100.00;155444.63;5063919;28;20441;-76
2021/07/16 05:46:09;;;;;;;15.50;13.87;;;;;;;15.86;100.00;155434.25;5071260;28;20854;-75
2021/07/16 05:48:46;;;;;;;12.80;11.10;;;;;;;15.90;100.00;155444.63;5063477;28;20437;-76
2021/07/16 05:51:24;;;;;;;12.70;11.40;;;;;;;15.95;100.00;155457.63;5074736;28;20441;-76
2021/07/16 05:53:59;;;;;;;17.07;12.53;;;;;;;15.96;100.00;155461.56;5087181;28;20441;-76
2021/07/16 05:56:40;;;;;;;14.40;12.33;;;;;;;16.02;100.00;155475.88;5073599;28;20437;-76
2021/07/16 05:59:15;;;;;;;15.97;12.50;;;;;;;16.05;100.00;155483.63;5069153;28;20787;-75
2021/07/16 06:01:50;;;;;;;15.43;12.43;;;;;;;16.10;100.00;155497.94;5090400;28;20528;-76
2021/07/16 06:04:26;;;;;;;17.17;13.93;;;;;;;16.12;100.00;155501.88;5045124;28;20478;-76
2021/07/16 06:07:03;;;;;;;18.63;13.83;;;;;;;16.07;100.00;155488.88;5070208;28;20477;-76
2021/07/16 06:09:39;;;;;;;18.20;14.10;;;;;;;16.05;100.00;155484.94;5053736;28;20450;-75
2021/07/16 06:12:14;;;;;;;16.23;13.40;;;;;;;16.08;100.00;155492.75;5087420;28;20880;-76
2021/07/16 06:14:54;;;;;;;14.43;12.93;;;;;;;16.13;100.00;155504.44;5073636;28;20453;-75
2021/07/16 06:17:30;;;;;;;14.27;12.77;;;;;;;16.21;100.00;155525.25;5089621;28;20441;-75
2021/07/16 06:20:08;;;;;;;13.60;11.70;;;;;;;16.33;100.00;155556.47;5088608;28;20437;-76
2021/07/16 06:22:45;;;;;;;14.30;12.27;;;;;;;16.42;100.00;155581.16;5072602;28;20438;-76
2021/07/16 06:25:20;;;;;;;16.17;13.13;;;;;;;16.36;100.00;155564.28;5065002;28;20445;-76
2021/07/16 06:27:56;;;;;;;14.13;12.17;;;;;;;16.27;100.00;155540.84;5072703;28;20986;-75
2021/07/16 06:30:32;;;;;;;15.03;12.97;;;;;;;16.31;100.00;155552.56;5073117;28;20441;-75
2021/07/16 06:33:19;;;;;;;16.23;12.97;;;;;;;16.29;100.00;155546.06;5100123;28;20433;-77
2021/07/16 06:35:54;;;;;;;15.30;12.90;;;;;;;16.41;100.00;155577.28;5073574;28;20480;-76
2021/07/16 06:38:32;;;;;;;15.13;13.57;;;;;;;16.40;100.00;155575.97;5072026;28;20442;-75
2021/07/16 06:41:09;;;;;;;17.17;13.60;;;;;;;16.27;100.00;155540.84;5056117;28;20449;-76
2021/07/16 06:43:44;;;;;;;15.30;13.70;;;;;;;16.15;100.00;155510.94;5073968;28;20441;-76
2021/07/16 06:46:20;;;;;;;17.80;14.70;;;;;;;16.40;100.00;155575.97;5086399;28;20462;-76
2021/07/16 06:48:55;;;;;;;15.40;13.80;;;;;;;17.01;100.00;155733.44;5056860;28;20449;-76
2021/07/16 06:51:33;;;;;;;19.30;15.37;;;;;;;17.24;100.00;155790.66;5086629;28;20437;-75
2021/07/16 06:54:10;;;;;;;15.90;14.10;;;;;;;17.47;100.00;155851.84;5075601;28;20501;-76
2021/07/16 06:56:45;;;;;;;15.40;13.40;;;;;;;18.10;100.00;156013.34;5077565;28;20442;-76
2021/07/16 06:59:21;;;;;;;16.67;13.03;;;;;;;18.27;100.00;156058.91;5089482;28;20456;-75
2021/07/16 07:01:57;;;;;;;14.33;12.40;;;;;;;18.18;100.00;156035.50;5075984;28;20437;-76
2021/07/16 07:04:34;;;;;;;11.87;10.70;;;;;;;17.97;100.00;155979.50;5077088;28;20449;-75
2021/07/16 07:07:10;;;;;;;11.70;10.50;;;;;;;18.12;100.00;156018.56;5076395;28;20461;-75
2021/07/16 07:09:47;;;;;;;12.07;10.80;;;;;;;18.33;100.00;156073.25;5090092;28;20437;-75
2021/07/16 07:12:36;;;;;;;13.07;11.60;;;;;;;19.29;100.00;156322.16;5075753;28;20462;-75
2021/07/16 07:15:12;;;;;;;13.03;11.90;;;;;;;18.88;97.27;156215.28;5076339;28;20441;-75
2021/07/16 07:17:48;;;;;;;12.30;11.10;;;;;;;18.88;98.40;156215.28;5076842;28;20951;-75
2021/07/16 07:20:23;;;;;;;12.90;11.70;;;;;;;18.63;97.95;156150.16;5057226;28;20448;-75
2021/07/16 07:22:59;;;;;;;13.43;12.07;;;;;;;18.46;96.89;156107.09;5056460;28;20442;-75
2021/07/16 07:25:36;;;;;;;12.50;11.20;;;;;;;18.06;100.00;156004.22;5070052;28;20454;-75
2021/07/16 07:28:12;;;;;;;14.33;12.83;;;;;;;17.74;100.00;155920.88;5104745;22;20526;-87
2021/07/16 07:30:48;;;;;;;12.97;11.67;;;;;;;17.86;100.00;155952.16;5074371;28;20504;-87
2021/07/16 07:33:24;;;;;;;12.40;11.20;;;;;;;17.81;100.00;155939.16;5064142;28;20873;-87
2021/07/16 07:35:59;;;;;;;13.33;12.00;;;;;;;17.93;100.00;155970.38;5048347;28;20453;-87
2021/07/16 07:38:35;;;;;;;12.83;11.50;;;;;;;18.05;100.00;156000.34;5076921;28;20453;-87
2021/07/16 07:41:12;;;;;;;13.30;11.93;;;;;;;18.06;98.89;156004.22;5093423;28;20441;-87
2021/07/16 07:43:47;;;;;;;13.40;12.00;;;;;;;18.11;100.00;156017.25;5074378;28;20446;-87
2021/07/16 07:46:24;;;;;;;11.93;10.93;;;;;;;18.08;98.59;156009.41;5073593;28;20445;-87
2021/07/16 07:49:00;;;;;;;11.60;10.50;;;;;;;18.22;97.31;156045.91;5093877;28;20859;-87
2021/07/16 07:51:35;;;;;;;12.07;10.87;;;;;;;18.20;96.72;156039.38;5076797;28;20472;-87
2021/07/16 07:54:11;;;;;;;11.80;10.70;;;;;;;18.29;97.53;156061.53;5075810;28;20445;-87
2021/07/16 07:56:48;;;;;;;10.87;9.77;;;;;;;18.31;97.58;156068.06;5076450;28;20429;-87
2021/07/16 07:59:25;;;;;;;13.80;12.53;;;;;;;18.33;100.00;156071.94;5076543;28;20543;-87
2021/07/16 08:02:00;;;;;;;13.80;12.37;;;;;;;18.29;99.49;156061.53;5076190;28;20440;-87
2021/07/16 08:04:37;;;;;;;10.90;9.80;;;;;;;18.19;100.00;156038.09;5076308;28;20456;-87
2021/07/16 08:07:13;;;;;;;11.60;10.40;;;;;;;18.34;99.56;156075.88;5076337;28;20867;-87
2021/07/16 08:09:48;;;;;;;11.20;10.10;;;;;;;18.35;100.00;156077.19;5076605;28;20448;-87
2021/07/16 08:12:26;;;;;;;10.40;9.50;;;;;;;18.34;98.55;156075.88;5083983;28;20447;-87
2021/07/16 08:15:01;;;;;;;11.00;10.00;;;;;;;18.36;99.64;156079.75;5086362;28;20858;-87
2021/07/16 08:17:36;;;;;;;11.20;10.13;;;;;;;18.55;99.52;156129.31;5056317;28;20434;-87
2021/07/16 08:20:12;;;;;;;10.80;9.87;;;;;;;18.32;98.63;156070.63;5062025;28;20445;-87
2021/07/16 08:22:48;;;;;;;10.83;9.60;;;;;;;18.21;99.75;156043.28;5094964;28;20493;-87
2021/07/16 08:25:23;;;;;;;12.20;11.10;;;;;;;18.33;98.39;156071.94;5091400;28;20520;-87
2021/07/16 08:28:00;;;;;;;13.03;11.83;;;;;;;18.22;99.07;156045.91;5056424;28;20473;-87
2021/07/16 08:30:35;;;;;;;10.63;9.63;;;;;;;18.48;100.00;156111.09;5115060;28;20838;-87
2021/07/16 08:33:11;;;;;;;10.90;9.80;;;;;;;18.89;97.42;156216.59;5070517;28;20507;-88
2021/07/16 08:35:47;;;;;;;9.47;8.57;;;;;;;19.39;95.63;156348.28;5057649;28;20449;-88
2021/07/16 08:38:22;;;;;;;11.00;10.00;;;;;;;19.74;94.30;156438.22;5056139;28;20449;-88
2021/07/16 08:40:58;;;;;;;10.33;9.27;;;;;;;20.13;93.80;156537.31;5055887;28;20442;-89
2021/07/16 08:43:36;;;;;;;10.07;9.17;;;;;;;20.46;90.27;156623.47;5056157;28;20449;-89
2021/07/16 08:46:13;;;;;;;9.37;8.57;;;;;;;21.02;87.44;156768.28;5085755;28;20533;-89
2021/07/16 08:48:48;;;;;;;10.07;8.90;;;;;;;21.26;85.38;156830.94;5066200;28;20497;-88
2021/07/16 08:51:24;;;;;;;9.00;8.20;;;;;;;21.25;86.83;156828.34;5076848;28;20915;-88
2021/07/16 08:53:59;;;;;;;9.50;8.60;;;;;;;20.99;85.70;156760.44;5075851;28;20445;-88
2021/07/16 08:56:36;;;;;;;8.87;8.07;;;;;;;20.72;86.31;156689.97;5075120;28;20674;-88
2021/07/16 08:59:15;;;;;;;9.80;8.80;;;;;;;19.89;89.89;156477.34;5081936;28;20453;-88
2021/07/16 09:01:51;;;;;;;9.37;8.50;;;;;;;20.28;88.43;156576.50;5075400;28;20445;-88
2021/07/16 09:04:26;;;;;;;9.63;8.80;;;;;;;21.14;87.11;156799.63;5075897;28;20449;-88
2021/07/16 09:07:02;;;;;;;9.37;8.53;;;;;;;22.00;82.02;157021.63;5079976;28;20463;-88
2021/07/16 09:09:39;;;;;;;8.27;7.57;;;;;;;22.22;77.09;157079.06;5113766;28;20894;-89
2021/07/16 09:12:15;;;;;;;7.83;7.07;;;;;;;22.98;77.13;157277.66;5076975;28;20445;-89
2021/07/16 09:14:52;;;;;;;8.33;7.63;;;;;;;23.32;75.26;157365.25;5055695;28;20865;-90
2021/07/16 09:17:28;;;;;;;7.30;6.60;;;;;;;23.44;74.16;157395.34;5075053;28;20790;-91
2021/07/16 09:20:04;;;;;;;7.90;7.17;;;;;;;23.45;73.40;157399.28;5089627;28;20959;-90
2021/07/16 09:22:40;;;;;;;8.00;7.30;;;;;;;22.69;72.08;157201.88;5093944;28;20429;-90
2021/07/16 09:25:15;;;;;;;8.70;7.90;;;;;;;22.93;74.13;157264.59;5090586;28;20535;-90
2021/07/16 09:27:52;;;;;;;8.20;7.50;;;;;;;24.02;70.15;157547.00;5096348;28;20461;-87
2021/07/16 09:30:30;;;;;;;7.30;6.70;;;;;;;23.89;70.12;157513.00;5093544;28;20429;-91
2021/07/16 09:33:07;;;;;;;7.13;6.53;;;;;;;22.99;73.33;157280.28;5093153;28;20903;-91
2021/07/16 09:35:44;;;;;;;7.33;6.63;;;;;;;22.42;76.05;157131.31;5093705;28;20433;-91
2021/07/16 09:38:19;;;;;;;7.30;6.60;;;;;;;22.54;72.99;157162.66;5091044;28;20544;-91
2021/07/16 09:40:56;;;;;;;7.80;6.90;;;;;;;22.13;77.10;157055.56;5084140;28;20421;-90
2021/07/16 09:43:31;;;;;;;6.90;6.30;;;;;;;23.21;71.54;157335.19;5060057;28;20445;-91
2021/07/16 09:46:08;;;;;;;8.10;7.40;;;;;;;23.25;74.15;157346.94;5104118;28;20458;-91
2021/07/16 09:48:44;;;;;;;7.43;6.83;;;;;;;22.87;69.39;157247.66;5094912;28;20480;-91
2021/07/16 09:51:20;;;;;;;7.40;6.80;;;;;;;23.45;70.56;157397.97;5093627;28;20475;-91
2021/07/16 09:54:00;;;;;;;6.63;6.03;;;;;;;23.87;67.99;157506.47;5071741;28;20438;-91
2021/07/16 09:56:37;;;;;;;7.50;6.60;;;;;;;23.25;70.66;157345.63;5087613;28;20807;-90
2021/07/16 09:59:17;;;;;;;7.83;7.17;;;;;;;21.76;72.99;156961.47;5078971;28;20437;-90
2021/07/16 10:01:54;;;;;;;8.00;7.40;;;;;;;21.65;74.47;156931.47;5073789;28;20436;-89
2021/07/16 10:04:33;;;;;;;7.10;6.50;;;;;;;22.32;73.53;157105.16;5106467;28;20457;-90
2021/07/16 10:07:10;;;;;;;5.50;5.10;;;;;;;23.03;70.72;157290.72;5102642;28;20441;-90
2021/07/16 10:09:45;;;;;;;6.20;5.60;;;;;;;23.07;70.18;157298.56;5065143;28;20804;-90
2021/07/16 10:12:21;;;;;;;7.70;6.90;;;;;;;22.97;69.86;157275.09;5093129;28;20472;-90
2021/07/16 10:14:57;;;;;;;5.83;5.23;;;;;;;23.01;69.46;157284.19;5079206;28;20829;-90
2021/07/16 10:17:34;;;;;;;6.10;5.63;;;;;;;22.98;69.42;157276.41;5092855;28;20842;-89
2021/07/16 10:20:12;;;;;;;6.70;6.10;;;;;;;22.78;73.75;157225.41;5093347;28;20797;-90
2021/07/16 10:22:51;;;;;;;6.17;5.60;;;;;;;22.11;71.15;157051.63;5067591;28;20858;-89
2021/07/16 10:25:27;;;;;;;6.30;5.80;;;;;;;22.07;70.64;157039.88;5098440;28;20461;-89
2021/07/16 10:28:03;;;;;;;5.43;5.03;;;;;;;21.72;70.74;156949.75;5060849;28;20473;-89
2021/07/16 10:30:40;;;;;;;5.93;5.43;;;;;;;22.68;74.87;157197.97;5074487;28;20437;-89
2021/07/16 10:33:33;;;;;;;6.17;4.73;;;;;;;22.56;70.40;157166.59;5072301;28;20449;-89
2021/07/16 10:36:12;;;;;;;5.50;5.00;;;;;;;22.49;70.49;157149.59;5071266;28;20457;-89
2021/07/16 10:38:51;;;;;;;5.30;4.90;;;;;;;22.26;69.79;157089.53;5112472;28;20468;-88
2021/07/16 10:41:31;;;;;;;4.00;3.70;;;;;;;21.72;69.81;156951.06;5078104;28;20876;-88
2021/07/16 10:44:06;;;;;;;4.13;3.67;;;;;;;21.65;68.84;156931.47;5046735;28;20449;-88
2021/07/16 10:46:44;;;;;;;4.10;3.73;;;;;;;21.85;69.54;156985.00;5041996;28;20429;-88
2021/07/16 10:49:22;;;;;;;5.47;5.07;;;;;;;22.25;69.85;157086.91;5073316;28;20485;-88
2021/07/16 10:52:04;;;;;;;4.30;3.80;;;;;;;22.11;69.23;157050.31;5068201;28;20436;-88
2021/07/16 10:54:45;;;;;;;4.90;4.50;;;;;;;21.53;69.92;156900.13;5093407;28;20473;-88
2021/07/16 10:57:21;;;;;;;4.27;3.87;;;;;;;21.91;71.32;156998.09;5077871;28;20804;-88
2021/07/16 10:59:58;;;;;;;4.80;4.40;;;;;;;22.03;71.18;157030.72;5082197;28;20439;-88
2021/07/16 11:02:46;;;;;;;4.43;4.13;;;;;;;21.61;71.91;156922.31;5100983;28;20437;-88
2021/07/16 11:05:51;;;;;;;3.63;3.33;;;;;;;21.80;71.68;156970.63;5094691;28;20453;-88
2021/07/16 11:08:59;;;;;;;3.63;3.33;;;;;;;21.83;70.79;156979.78;5076360;28;20473;-87
2021/07/16 11:11:37;;;;;;;3.83;3.53;;;;;;;22.05;70.11;157034.69;5092766;28;20480;-88
2021/07/16 11:14:23;;;;;;;4.17;3.77;;;;;;;22.05;68.60;157034.69;5072237;28;20445;-88
2021/07/16 11:17:04;;;;;;;4.17;3.77;;;;;;;21.98;69.56;157016.38;5047657;28;20850;-87
2021/07/16 11:19:39;;;;;;;3.93;3.63;;;;;;;21.95;69.64;157009.84;5093580;28;20965;-88
2021/07/16 11:22:26;;;;;;;3.90;3.60;;;;;;;22.01;69.06;157025.53;5086365;28;20442;-88
2021/07/16 11:25:02;;;;;;;3.90;3.47;;;;;;;21.59;69.74;156917.13;5091136;28;20439;-87
2021/07/16 11:27:37;;;;;;;3.77;3.47;;;;;;;21.37;71.03;156859.66;5084442;28;20435;-88
2021/07/16 11:30:13;;;;;;;4.57;4.17;;;;;;;21.30;72.13;156841.41;5096594;28;20472;-88
2021/07/16 11:32:49;;;;;;;4.10;3.80;;;;;;;21.26;72.40;156830.94;5085426;28;20440;-87
2021/07/16 11:35:25;;;;;;;4.23;3.43;;;;;;;21.11;73.37;156793.13;5059367;28;20457;-87
2021/07/16 11:38:07;;;;;;;4.50;4.20;;;;;;;21.23;74.94;156823.16;5075060;28;20506;-87
2021/07/16 11:40:45;;;;;;;4.07;3.67;;;;;;;21.12;73.96;156795.75;5087271;28;20947;-87
2021/07/16 11:43:21;;;;;;;4.57;3.60;;;;;;;21.20;72.55;156815.31;5082554;28;20472;-87
2021/07/16 11:45:57;;;;;;;3.03;2.83;;;;;;;21.43;70.67;156875.34;5075784;28;20449;-87
2021/07/16 11:48:32;;;;;;;3.30;3.00;;;;;;;21.59;70.66;156917.13;5091392;28;20484;-87
2021/07/16 11:51:08;;;;;;;3.20;2.90;;;;;;;21.30;71.05;156840.09;5061149;28;20445;-87
2021/07/16 11:53:45;;;;;;;4.07;2.70;;;;;;;21.35;69.59;156854.44;5076812;28;20468;-87
2021/07/16 11:56:23;;;;;;;2.60;2.40;;;;;;;21.72;69.90;156951.06;5073621;28;20458;-87
2021/07/16 11:59:01;;;;;;;2.80;2.60;;;;;;;21.88;68.85;156990.25;5091144;28;20430;-87